This is the latest recevied weather packets stored in our database for station/object WC4PEM-15. If no packets are shown the sender has not sent any weather packets the latest 10 day(s).
| Time | Temp. | Humidity | Pressure | Rain* | Wind** | Luminosity | Snow |
|---|---|---|---|---|---|---|---|
| 1777994101 | 27.22° C | 58% | 1016.3 hPa | 0 mm | - | - | - |
| 1777993907 | 27.22° C | 55% | 1016.2 hPa | 0 mm | - | - | - |
| 1777993801 | 27.22° C | 55% | 1016.2 hPa | 0 mm | - | - | - |
| 1777993638 | 26.67° C | 60% | 1016.3 hPa | 0 mm | - | - | - |
| 1777993559 | 27.22° C | 58% | 1016.2 hPa | 0 mm | - | - | - |
| 1777993501 | 27.22° C | 58% | 1016.2 hPa | 0 mm | - | - | - |
| 1777993253 | 26.67° C | 60% | 1016.3 hPa | 0 mm | - | - | - |
| 1777993201 | 26.67° C | 60% | 1016.3 hPa | 0 mm | - | - | - |
| 1777993089 | 26.11° C | 59% | 1016.3 hPa | 0 mm | - | - | - |
| 1777992993 | 26.11° C | 59% | 1016.3 hPa | 0 mm | - | - | - |
| 1777992901 | 26.11° C | 59% | 1016.3 hPa | 0 mm | - | - | - |
| 1777992684 | 26.67° C | 59% | 1016.1 hPa | 0 mm | - | - | - |
| 1777992601 | 26.67° C | 59% | 1016.1 hPa | 0 mm | - | - | - |
| 1777992367 | 26.11° C | 62% | 1016.2 hPa | 0 mm | - | - | - |
| 1777992301 | 26.11° C | 62% | 1016.2 hPa | 0 mm | - | - | - |
| 1777992163 | 26.11° C | 63% | 1016.1 hPa | 0 mm | - | - | - |
| 1777992001 | 26.11° C | 63% | 1016.1 hPa | 0 mm | - | - | - |
| 1777991991 | 26.11° C | 65% | 1016.1 hPa | 0 mm | - | - | - |
| 1777991701 | 26.11° C | 65% | 1016.1 hPa | 0 mm | - | - | - |
| 1777991572 | 25.56° C | 66% | 1015.9 hPa | 0 mm | - | - | - |
| 1777991401 | 25.56° C | 66% | 1015.9 hPa | 0 mm | - | - | - |
| 1777991173 | 25.56° C | 64% | 1015.9 hPa | 0 mm | - | - | - |
| 1777991101 | 25.56° C | 64% | 1015.9 hPa | 0 mm | - | - | - |
| 1777990908 | 25.56° C | 66% | 1015.8 hPa | 0 mm | - | - | - |
| 1777990801 | 25.56° C | 66% | 1015.8 hPa | 0 mm | - | - | - |
* Rain latest hour (hover to see other rain measurements)
** Current wind speed in m/s (hover to see current wind gust speed)